Terminal Aerodrome Forecast
Issued by NWS Medford, OR

Home | Current Version | Previous Version | Text Only | Print | Product List | Glossary On
Versions: 1 2 3 4 5 6 7 8 9 10 11 12 13 14 15 16 17 18 19 20 21 22 23 24 25 26 27 28 29 30 31 32
907
FTUS46 KMFR 210310 AAD
TAFMFR
TAF AMD
KMFR 210310Z 2103/2124 VRB03KT P6SM -RA SCT004 BKN060 OVC080
     FM210600 14005KT 5SM -RA BR SCT007 OVC035 WS020/22040KT
     FM211200 15010G20KT P6SM FEW020 BKN070 OVC100=

USA.gov is the U.S. government's official web portal to all federal, state and local government web resources and services.